createdAt,value
2017-07-18T00:00:04.829Z,18.90
2017-07-18T00:02:39.770Z,18.90
2017-07-18T00:05:14.652Z,19.00
2017-07-18T00:07:49.607Z,18.80
2017-07-18T00:10:24.517Z,18.80
2017-07-18T00:12:59.496Z,18.80
2017-07-18T00:15:34.405Z,18.80
2017-07-18T00:18:09.267Z,18.80
2017-07-18T00:20:44.245Z,18.70
2017-07-18T00:23:19.092Z,18.70
2017-07-18T00:25:53.907Z,18.70
2017-07-18T00:28:28.862Z,18.60
2017-07-18T00:31:03.884Z,18.60
2017-07-18T00:33:38.829Z,18.60
2017-07-18T00:36:13.620Z,18.60
2017-07-18T00:38:48.411Z,18.60
2017-07-18T00:41:23.312Z,18.50
2017-07-18T00:43:58.267Z,18.60
2017-07-18T00:46:33.272Z,18.60
2017-07-18T00:49:08.116Z,18.50
2017-07-18T00:51:42.975Z,18.60
2017-07-18T00:54:17.779Z,18.50
2017-07-18T00:56:52.668Z,18.50
2017-07-18T00:59:27.493Z,18.50
2017-07-18T01:02:02.373Z,18.50
2017-07-18T01:04:37.319Z,18.50
2017-07-18T01:07:12.103Z,18.60
2017-07-18T01:09:46.919Z,18.40
2017-07-18T01:12:21.799Z,18.30
2017-07-18T01:14:56.703Z,18.30
2017-07-18T01:17:31.635Z,18.30
2017-07-18T01:20:06.626Z,18.30
2017-07-18T01:22:42.307Z,18.20
2017-07-18T01:25:17.285Z,18.10
2017-07-18T01:27:53.014Z,18.30
2017-07-18T01:30:27.952Z,18.30
2017-07-18T01:33:02.845Z,18.30
2017-07-18T01:35:37.779Z,18.30
2017-07-18T01:38:12.704Z,18.40
2017-07-18T01:40:48.612Z,18.30
2017-07-18T01:43:23.575Z,18.40
2017-07-18T01:45:58.434Z,18.40
2017-07-18T01:48:33.287Z,18.30
2017-07-18T01:51:08.080Z,18.30
2017-07-18T01:53:42.982Z,18.30
2017-07-18T01:56:17.964Z,18.30
2017-07-18T01:58:52.785Z,18.20
2017-07-18T02:01:27.635Z,18.30
2017-07-18T02:04:02.559Z,18.10
2017-07-18T02:06:37.339Z,18.20
2017-07-18T02:09:12.243Z,18.10
2017-07-18T02:11:47.220Z,18.10
2017-07-18T02:14:22.022Z,18.00
2017-07-18T02:16:56.803Z,17.90
2017-07-18T02:19:31.650Z,17.90
2017-07-18T02:22:06.488Z,18.00
2017-07-18T02:24:41.383Z,17.90
2017-07-18T02:27:16.363Z,17.90
2017-07-18T02:29:51.243Z,17.90
2017-07-18T02:32:26.220Z,17.90
2017-07-18T02:35:01.100Z,17.90
2017-07-18T02:37:36.778Z,18.00
2017-07-18T02:40:11.744Z,17.90
2017-07-18T02:42:46.692Z,17.90
2017-07-18T02:45:21.555Z,18.00
2017-07-18T02:47:56.403Z,17.90
2017-07-18T02:50:31.200Z,17.70
2017-07-18T02:53:06.002Z,17.80
2017-07-18T02:55:41.010Z,17.80
2017-07-18T02:58:15.905Z,17.90
2017-07-18T03:00:50.844Z,17.90
2017-07-18T03:03:25.674Z,17.70
2017-07-18T03:06:00.583Z,17.80
2017-07-18T03:08:35.497Z,17.80
2017-07-18T03:11:10.385Z,17.80
2017-07-18T03:13:45.320Z,17.80
2017-07-18T03:16:21.053Z,17.80
2017-07-18T03:18:55.897Z,17.80
2017-07-18T03:21:30.840Z,17.70
2017-07-18T03:24:05.744Z,17.70
2017-07-18T03:26:40.626Z,17.60
2017-07-18T03:29:16.359Z,17.70
2017-07-18T03:31:51.204Z,17.80
2017-07-18T03:34:26.178Z,17.70
2017-07-18T03:37:01.067Z,17.70
2017-07-18T03:39:35.856Z,17.70
2017-07-18T03:42:10.654Z,17.60
2017-07-18T03:44:45.556Z,17.70
2017-07-18T03:47:20.343Z,17.70
2017-07-18T03:49:55.267Z,17.70
2017-07-18T03:52:30.148Z,17.80
2017-07-18T03:55:05.068Z,17.90
2017-07-18T03:57:39.985Z,18.00
2017-07-18T04:00:14.940Z,17.90
2017-07-18T04:02:49.905Z,17.80
2017-07-18T04:05:24.832Z,17.80
2017-07-18T04:07:59.816Z,17.80
2017-07-18T04:10:34.649Z,17.90
2017-07-18T04:13:09.543Z,18.00
2017-07-18T04:15:44.764Z,18.00
2017-07-18T04:18:22.316Z,18.10
2017-07-18T04:20:58.179Z,18.00
2017-07-18T04:23:33.135Z,18.00
2017-07-18T04:26:08.149Z,18.10
2017-07-18T04:28:43.105Z,18.00
2017-07-18T04:31:17.967Z,18.10
2017-07-18T04:33:52.728Z,18.10
2017-07-18T04:36:27.693Z,18.30
2017-07-18T04:39:02.629Z,18.30
2017-07-18T04:41:38.420Z,18.20
2017-07-18T04:44:13.262Z,18.20
2017-07-18T04:46:48.130Z,18.40
2017-07-18T04:49:22.899Z,18.50
2017-07-18T04:51:57.966Z,18.40
2017-07-18T04:54:32.964Z,18.60
2017-07-18T04:57:07.739Z,18.80
2017-07-18T04:59:42.503Z,18.80
2017-07-18T05:02:17.285Z,18.90
2017-07-18T05:04:52.916Z,19.00
2017-07-18T05:07:27.848Z,19.10
2017-07-18T05:10:02.761Z,19.20
2017-07-18T05:12:41.209Z,19.20
2017-07-18T05:15:16.215Z,19.10
2017-07-18T05:17:51.091Z,19.10
2017-07-18T05:20:25.900Z,19.40
2017-07-18T05:23:00.840Z,19.50
2017-07-18T05:25:35.754Z,19.40
2017-07-18T05:28:10.615Z,19.40
2017-07-18T05:30:45.549Z,19.60
2017-07-18T05:33:20.532Z,19.70
2017-07-18T05:35:55.487Z,19.60
2017-07-18T05:38:30.452Z,19.60
2017-07-18T05:41:05.352Z,19.90
2017-07-18T05:43:40.215Z,19.90
2017-07-18T05:46:15.921Z,20.00
2017-07-18T05:48:50.932Z,19.80
2017-07-18T05:51:25.864Z,20.20
2017-07-18T05:54:01.789Z,20.20
2017-07-18T05:56:36.744Z,20.60
2017-07-18T05:59:11.676Z,20.80
2017-07-18T06:01:46.569Z,20.90
2017-07-18T06:04:21.442Z,21.30
2017-07-18T06:06:56.376Z,21.30
2017-07-18T06:09:31.969Z,21.30
2017-07-18T06:12:06.832Z,21.60
2017-07-18T06:14:41.826Z,21.80
2017-07-18T06:17:16.632Z,21.80
2017-07-18T06:19:51.447Z,22.30
2017-07-18T06:22:26.240Z,22.30
2017-07-18T06:25:01.229Z,22.20
2017-07-18T06:27:36.282Z,22.60
2017-07-18T06:30:11.189Z,22.90
2017-07-18T06:32:45.974Z,23.20
2017-07-18T06:35:20.780Z,23.20
2017-07-18T06:37:55.772Z,23.50
2017-07-18T06:40:30.728Z,23.70
2017-07-18T06:43:05.524Z,23.80
2017-07-18T06:45:40.483Z,24.00
2017-07-18T06:48:15.373Z,24.30
2017-07-18T06:50:50.185Z,24.60
2017-07-18T06:53:25.076Z,24.80
2017-07-18T06:56:00.045Z,24.90
2017-07-18T06:58:34.997Z,25.10
2017-07-18T07:01:09.790Z,25.30
2017-07-18T07:03:44.704Z,25.30
2017-07-18T07:06:19.540Z,25.70
2017-07-18T07:08:56.419Z,26.00
2017-07-18T07:11:31.220Z,26.10
2017-07-18T07:14:06.028Z,26.10
2017-07-18T07:16:41.728Z,26.20
2017-07-18T07:19:16.640Z,26.50
2017-07-18T07:21:51.591Z,26.80
2017-07-18T07:24:26.514Z,26.80
2017-07-18T07:27:01.448Z,27.10
2017-07-18T07:29:36.219Z,27.40
2017-07-18T07:32:11.089Z,27.50
2017-07-18T07:34:46.030Z,27.70
2017-07-18T07:37:21.066Z,27.90
2017-07-18T07:39:58.058Z,28.00
2017-07-18T07:42:33.070Z,28.50
2017-07-18T07:45:07.924Z,28.40
2017-07-18T07:47:42.754Z,28.60
2017-07-18T07:50:17.569Z,28.90
2017-07-18T07:52:52.409Z,28.80
2017-07-18T07:55:28.143Z,28.50
2017-07-18T07:58:03.157Z,28.60
2017-07-18T08:00:38.153Z,28.50
2017-07-18T08:03:13.039Z,28.50
2017-07-18T08:05:47.877Z,28.60
2017-07-18T08:08:22.840Z,28.80
2017-07-18T08:10:57.668Z,29.20
2017-07-18T08:13:32.531Z,28.60
2017-07-18T08:16:07.299Z,28.60
2017-07-18T08:18:42.248Z,29.10
2017-07-18T08:21:17.032Z,29.20
2017-07-18T08:23:51.884Z,29.00
2017-07-18T08:26:26.675Z,28.90
2017-07-18T08:29:01.462Z,29.20
2017-07-18T08:31:36.408Z,29.40
2017-07-18T08:34:11.355Z,29.50
2017-07-18T08:36:46.346Z,29.50
2017-07-18T08:39:21.322Z,29.30
2017-07-18T08:41:56.254Z,29.20
2017-07-18T08:44:31.165Z,29.40
2017-07-18T08:47:05.943Z,29.50
2017-07-18T08:49:41.000Z,29.50
2017-07-18T08:52:16.571Z,29.50
2017-07-18T08:54:51.519Z,29.70
2017-07-18T08:57:26.335Z,30.00
2017-07-18T09:00:01.365Z,30.10
2017-07-18T09:02:36.279Z,30.40
2017-07-18T09:05:11.258Z,30.30
2017-07-18T09:07:46.258Z,30.00
2017-07-18T09:10:22.056Z,30.50
2017-07-18T09:12:56.908Z,30.60
2017-07-18T09:15:31.893Z,30.80
2017-07-18T09:18:06.668Z,30.70
2017-07-18T09:20:41.478Z,30.70
2017-07-18T09:23:16.487Z,30.50
2017-07-18T09:25:51.495Z,30.60
2017-07-18T09:28:26.312Z,30.60
2017-07-18T09:31:01.331Z,30.70
2017-07-18T09:33:36.280Z,31.10
2017-07-18T09:36:11.312Z,30.80
2017-07-18T09:38:46.187Z,31.00
2017-07-18T09:41:21.069Z,31.40
2017-07-18T09:43:55.997Z,31.40
2017-07-18T09:46:30.995Z,31.30
2017-07-18T09:49:05.922Z,31.30
2017-07-18T09:51:41.684Z,31.70
2017-07-18T09:54:16.583Z,31.70
2017-07-18T09:56:51.503Z,32.20
2017-07-18T09:59:26.460Z,32.60
2017-07-18T10:02:01.446Z,32.20
2017-07-18T10:04:36.363Z,32.20
2017-07-18T10:07:11.412Z,32.10
2017-07-18T10:09:46.363Z,32.30
2017-07-18T10:12:21.212Z,32.70
2017-07-18T10:14:56.849Z,32.80
2017-07-18T10:17:31.748Z,33.20
2017-07-18T10:20:06.575Z,33.10
2017-07-18T10:22:41.572Z,33.30
2017-07-18T10:25:16.415Z,33.20
2017-07-18T10:27:51.424Z,33.70
2017-07-18T10:30:26.553Z,34.00
2017-07-18T10:33:01.416Z,33.70
2017-07-18T10:35:36.323Z,33.40
2017-07-18T10:38:11.138Z,33.60
2017-07-18T10:40:45.962Z,33.80
2017-07-18T10:43:21.724Z,34.00
2017-07-18T10:45:56.620Z,33.40
2017-07-18T10:48:33.568Z,33.90
2017-07-18T10:51:08.510Z,34.30
2017-07-18T10:53:43.406Z,34.30
2017-07-18T10:56:18.277Z,34.10
2017-07-18T10:58:53.407Z,33.70
2017-07-18T11:01:30.833Z,34.00
2017-07-18T11:04:15.536Z,34.10
2017-07-18T11:06:50.508Z,34.40
2017-07-18T11:09:26.237Z,34.60
2017-07-18T11:12:07.029Z,35.20
2017-07-18T11:14:42.036Z,35.20
2017-07-18T11:17:17.293Z,34.60
2017-07-18T11:19:52.253Z,35.40
2017-07-18T11:22:27.148Z,36.20
2017-07-18T11:25:08.378Z,35.60
2017-07-18T11:27:44.541Z,35.70
2017-07-18T11:30:30.400Z,36.40
2017-07-18T11:33:05.367Z,36.60
2017-07-18T11:35:41.262Z,35.60
2017-07-18T11:38:16.215Z,35.30
2017-07-18T11:40:53.170Z,35.00
2017-07-18T11:43:28.133Z,35.80
2017-07-18T11:46:03.123Z,36.20
2017-07-18T11:48:37.907Z,37.00
2017-07-18T11:51:12.785Z,37.20
2017-07-18T11:53:48.621Z,36.60
2017-07-18T11:56:23.806Z,36.90
2017-07-18T11:58:58.682Z,37.60
2017-07-18T12:01:33.600Z,37.50
2017-07-18T12:04:08.410Z,37.90
2017-07-18T12:06:43.543Z,37.80
2017-07-18T12:09:18.341Z,38.10
2017-07-18T12:11:53.546Z,37.30
2017-07-18T12:14:47.684Z,37.80
2017-07-18T12:17:29.805Z,38.10
2017-07-18T12:20:06.827Z,38.60
2017-07-18T12:22:42.297Z,38.60
2017-07-18T12:25:18.233Z,38.90
2017-07-18T12:27:53.161Z,39.40
2017-07-18T12:30:28.116Z,39.00
2017-07-18T12:33:03.144Z,39.00
2017-07-18T12:35:38.129Z,39.80
2017-07-18T12:38:12.980Z,40.50
2017-07-18T12:40:48.046Z,40.60
2017-07-18T12:43:23.110Z,41.00
2017-07-18T12:45:58.148Z,41.40
2017-07-18T12:48:34.032Z,41.50
2017-07-18T12:51:09.149Z,42.50
2017-07-18T12:53:44.065Z,41.70
2017-07-18T12:56:20.117Z,43.00
2017-07-18T12:58:54.993Z,43.10
2017-07-18T13:01:29.949Z,42.70
2017-07-18T13:04:04.765Z,41.70
2017-07-18T13:06:39.658Z,42.30
2017-07-18T13:09:14.474Z,42.80
2017-07-18T13:11:50.420Z,43.40
2017-07-18T13:14:26.379Z,43.60
2017-07-18T13:17:01.580Z,43.50
2017-07-18T13:19:36.556Z,42.70
2017-07-18T13:22:11.490Z,42.90
2017-07-18T13:24:46.274Z,42.80
2017-07-18T13:27:21.346Z,43.30
2017-07-18T13:29:56.307Z,42.20
2017-07-18T13:32:31.144Z,42.10
2017-07-18T13:35:06.064Z,42.80
2017-07-18T13:37:40.833Z,43.40
2017-07-18T13:40:15.775Z,42.30
2017-07-18T13:42:50.841Z,42.20
2017-07-18T13:45:25.823Z,42.80
2017-07-18T13:48:00.639Z,43.20
2017-07-18T13:50:35.532Z,42.10
2017-07-18T13:53:10.450Z,39.70
2017-07-18T13:55:48.606Z,38.20
2017-07-18T13:58:23.581Z,37.80
2017-07-18T14:00:58.351Z,36.40
2017-07-18T14:03:33.243Z,36.20
2017-07-18T14:06:12.416Z,36.00
2017-07-18T14:08:47.593Z,35.50
2017-07-18T14:11:22.865Z,34.80
2017-07-18T14:13:57.728Z,35.00
2017-07-18T14:16:33.468Z,34.80
2017-07-18T14:19:08.379Z,35.00
2017-07-18T14:21:44.184Z,34.80
2017-07-18T14:24:19.141Z,34.30
2017-07-18T14:26:53.946Z,34.70
2017-07-18T14:29:28.860Z,34.60
2017-07-18T14:32:03.677Z,34.20
2017-07-18T14:34:38.500Z,33.80
2017-07-18T14:37:13.436Z,33.80
2017-07-18T14:39:48.237Z,33.80
2017-07-18T14:42:23.878Z,35.50
2017-07-18T14:44:58.676Z,37.30
2017-07-18T14:47:33.479Z,38.70
2017-07-18T14:50:08.381Z,39.90
2017-07-18T14:52:46.299Z,40.00
2017-07-18T14:55:21.290Z,40.60
2017-07-18T14:57:56.134Z,40.90
2017-07-18T15:00:31.676Z,41.20
2017-07-18T15:03:06.636Z,41.70
2017-07-18T15:05:43.512Z,41.80
2017-07-18T15:08:20.446Z,42.00
2017-07-18T15:10:55.232Z,41.90
2017-07-18T15:13:32.267Z,40.80
2017-07-18T15:16:13.194Z,39.90
2017-07-18T15:18:49.889Z,39.50
2017-07-18T15:21:27.136Z,38.90
2017-07-18T15:24:01.936Z,38.20
2017-07-18T15:26:38.130Z,38.40
2017-07-18T15:29:12.942Z,38.40
2017-07-18T15:31:49.835Z,38.40
2017-07-18T15:34:24.744Z,38.80
2017-07-18T15:36:59.668Z,38.70
2017-07-18T15:39:34.609Z,38.40
2017-07-18T15:42:09.532Z,38.70
2017-07-18T15:44:44.506Z,38.90
2017-07-18T15:47:20.119Z,38.60
2017-07-18T15:50:00.897Z,38.00
2017-07-18T15:52:36.164Z,37.40
2017-07-18T15:55:11.000Z,37.00
2017-07-18T15:57:45.906Z,36.60
2017-07-18T16:00:20.952Z,36.80
2017-07-18T16:02:56.278Z,37.00
2017-07-18T16:05:31.255Z,36.80
2017-07-18T16:08:06.079Z,36.40
2017-07-18T16:10:40.996Z,36.10
2017-07-18T16:13:15.757Z,36.70
2017-07-18T16:15:50.620Z,37.10
2017-07-18T16:18:25.532Z,37.60
2017-07-18T16:21:00.521Z,38.00
2017-07-18T16:23:35.420Z,38.10
2017-07-18T16:26:10.381Z,37.90
2017-07-18T16:28:45.332Z,38.50
2017-07-18T16:31:20.298Z,38.40
2017-07-18T16:33:55.256Z,38.10
2017-07-18T16:36:30.170Z,37.00
2017-07-18T16:39:06.041Z,35.90
2017-07-18T16:41:40.971Z,35.00
2017-07-18T16:44:15.779Z,34.00
2017-07-18T16:46:50.648Z,33.20
2017-07-18T16:49:25.430Z,32.80
2017-07-18T16:52:00.247Z,32.70
2017-07-18T16:54:35.196Z,33.20
2017-07-18T16:57:10.010Z,33.40
2017-07-18T16:59:44.917Z,33.70
2017-07-18T17:02:21.777Z,33.80
2017-07-18T17:04:56.709Z,33.20
2017-07-18T17:07:32.480Z,33.00
2017-07-18T17:10:07.390Z,32.20
2017-07-18T17:12:42.227Z,32.10
2017-07-18T17:15:17.024Z,31.90
2017-07-18T17:17:51.895Z,31.40
2017-07-18T17:20:26.767Z,31.50
2017-07-18T17:23:01.525Z,31.80
2017-07-18T17:25:41.322Z,31.80
2017-07-18T17:28:16.297Z,31.60
2017-07-18T17:30:51.225Z,31.60
2017-07-18T17:33:26.045Z,31.70
2017-07-18T17:36:01.025Z,31.70
2017-07-18T17:38:35.981Z,31.50
2017-07-18T17:41:12.028Z,31.40
2017-07-18T17:43:47.032Z,31.30
2017-07-18T17:46:21.971Z,31.20
2017-07-18T17:48:56.761Z,31.00
2017-07-18T17:51:31.554Z,31.00
2017-07-18T17:54:06.418Z,30.20
2017-07-18T17:56:41.358Z,30.00
2017-07-18T17:59:16.179Z,29.40
2017-07-18T18:01:51.144Z,29.00
2017-07-18T18:04:25.969Z,28.20
2017-07-18T18:07:00.897Z,28.00
2017-07-18T18:09:35.774Z,27.80
2017-07-18T18:12:10.769Z,27.70
2017-07-18T18:14:45.564Z,27.50
2017-07-18T18:17:20.531Z,27.40
2017-07-18T18:19:55.490Z,27.40
2017-07-18T18:22:30.479Z,27.10
2017-07-18T18:25:23.575Z,27.00
2017-07-18T18:28:01.267Z,26.40
2017-07-18T18:30:36.273Z,26.40
2017-07-18T18:33:17.151Z,26.10
2017-07-18T18:35:51.962Z,25.80
2017-07-18T18:38:26.783Z,25.90
2017-07-18T18:41:01.727Z,25.90
2017-07-18T18:43:36.678Z,25.80
2017-07-18T18:46:11.500Z,25.50
2017-07-18T18:48:46.422Z,25.30
2017-07-18T18:51:21.399Z,25.40
2017-07-18T18:53:56.648Z,25.40
2017-07-18T18:56:31.720Z,25.30
2017-07-18T18:59:06.876Z,25.20
2017-07-18T19:01:41.801Z,25.30
2017-07-18T19:04:16.805Z,25.10
2017-07-18T19:06:53.772Z,25.10
2017-07-18T19:09:28.569Z,25.00
2017-07-18T19:12:03.465Z,24.70
2017-07-18T19:14:38.383Z,24.60
2017-07-18T19:17:13.174Z,24.50
2017-07-18T19:19:48.531Z,24.30
2017-07-18T19:22:23.369Z,24.30
2017-07-18T19:24:58.271Z,24.40
2017-07-18T19:27:33.188Z,24.30
2017-07-18T19:30:08.155Z,24.30
2017-07-18T19:32:43.098Z,24.10
2017-07-18T19:35:18.287Z,24.10
2017-07-18T19:37:53.242Z,24.20
2017-07-18T19:40:29.155Z,24.00
2017-07-18T19:43:05.044Z,24.00
2017-07-18T19:45:39.847Z,23.70
2017-07-18T19:48:17.071Z,23.90
2017-07-18T19:50:52.511Z,23.70
2017-07-18T19:53:27.556Z,23.50
2017-07-18T19:56:02.952Z,23.50
2017-07-18T19:58:40.602Z,23.40
2017-07-18T20:01:16.742Z,23.50
2017-07-18T20:03:54.174Z,23.50
2017-07-18T20:06:29.151Z,23.40
2017-07-18T20:09:03.979Z,23.30
2017-07-18T20:11:38.779Z,23.20
2017-07-18T20:14:13.637Z,22.90
2017-07-18T20:16:48.490Z,23.20
2017-07-18T20:19:29.589Z,23.20
2017-07-18T20:22:04.497Z,23.20
2017-07-18T20:24:39.319Z,23.10
2017-07-18T20:27:24.424Z,23.10
2017-07-18T20:29:59.372Z,23.00
2017-07-18T20:32:37.087Z,22.90
2017-07-18T20:35:12.011Z,22.90
2017-07-18T20:37:46.915Z,23.00
2017-07-18T20:40:22.987Z,23.00
2017-07-18T20:42:57.895Z,22.70
2017-07-18T20:45:32.675Z,22.90
2017-07-18T20:48:07.583Z,22.90
2017-07-18T20:50:42.554Z,22.80
2017-07-18T20:53:17.819Z,22.70
2017-07-18T20:55:52.690Z,22.80
2017-07-18T20:58:27.589Z,22.80
2017-07-18T21:01:02.528Z,22.80
2017-07-18T21:03:41.084Z,22.80
2017-07-18T21:06:17.052Z,22.90
2017-07-18T21:08:52.057Z,22.80
2017-07-18T21:11:26.880Z,22.60
2017-07-18T21:14:01.949Z,22.70
2017-07-18T21:16:36.923Z,22.60
2017-07-18T21:19:12.906Z,22.70
2017-07-18T21:21:47.723Z,22.60
2017-07-18T21:24:22.983Z,22.60
2017-07-18T21:26:57.899Z,22.60
2017-07-18T21:29:32.734Z,22.50
2017-07-18T21:32:08.413Z,22.60
2017-07-18T21:34:43.531Z,22.50
2017-07-18T21:37:18.343Z,22.50
2017-07-18T21:39:53.138Z,22.40
2017-07-18T21:42:28.110Z,22.40
2017-07-18T21:45:03.317Z,22.50
2017-07-18T21:47:38.182Z,22.30
2017-07-18T21:50:13.096Z,22.50
2017-07-18T21:52:47.944Z,22.30
2017-07-18T21:55:22.772Z,22.30
2017-07-18T21:57:57.564Z,22.30
2017-07-18T22:00:32.358Z,22.40
2017-07-18T22:03:07.486Z,22.20
2017-07-18T22:05:43.316Z,22.30
2017-07-18T22:08:18.205Z,21.90
2017-07-18T22:10:53.082Z,21.90
2017-07-18T22:13:28.021Z,21.70
2017-07-18T22:16:02.841Z,21.80
2017-07-18T22:18:39.025Z,21.70
2017-07-18T22:21:13.795Z,21.90
2017-07-18T22:23:48.736Z,21.80
2017-07-18T22:26:23.674Z,21.80
2017-07-18T22:28:58.624Z,21.80
2017-07-18T22:31:33.404Z,21.80
2017-07-18T22:34:08.292Z,21.70
2017-07-18T22:36:43.223Z,21.70
2017-07-18T22:39:18.044Z,21.90
2017-07-18T22:41:53.145Z,21.80
2017-07-18T22:44:28.769Z,21.80
2017-07-18T22:47:03.634Z,21.80
2017-07-18T22:49:39.678Z,21.90
2017-07-18T22:52:14.665Z,22.00
2017-07-18T22:54:50.464Z,21.90
2017-07-18T22:57:25.449Z,22.00
2017-07-18T23:00:03.533Z,22.00
2017-07-18T23:02:39.517Z,21.80
2017-07-18T23:05:14.448Z,21.80
2017-07-18T23:07:59.962Z,21.20
2017-07-18T23:10:34.723Z,21.20
2017-07-18T23:13:09.567Z,21.20
2017-07-18T23:15:44.483Z,21.30
2017-07-18T23:18:19.430Z,21.10
2017-07-18T23:20:54.363Z,21.20
2017-07-18T23:23:29.155Z,21.30
2017-07-18T23:26:05.104Z,21.20
2017-07-18T23:28:40.046Z,21.20
2017-07-18T23:31:14.898Z,21.20
2017-07-18T23:33:49.803Z,21.30
2017-07-18T23:36:24.655Z,21.20
2017-07-18T23:38:59.408Z,21.20
2017-07-18T23:41:34.346Z,21.30
2017-07-18T23:44:09.379Z,21.20
2017-07-18T23:46:44.322Z,21.20
2017-07-18T23:49:19.116Z,21.30
2017-07-18T23:51:54.050Z,21.40
2017-07-18T23:54:28.923Z,21.40
2017-07-18T23:57:03.878Z,21.40
2017-07-18T23:59:38.639Z,21.40
